createdAt,value
2019-03-05T00:00:47.129Z,99316.81
2019-03-05T00:03:15.435Z,99319.92
2019-03-05T00:05:44.050Z,99309.75
2019-03-05T00:08:12.366Z,99308.63
2019-03-05T00:10:40.651Z,99316.80
2019-03-05T00:13:08.935Z,99310.89
2019-03-05T00:15:37.250Z,99314.52
2019-03-05T00:18:05.710Z,99328.92
2019-03-05T00:20:34.020Z,99315.97
2019-03-05T00:23:02.311Z,99314.66
2019-03-05T00:25:35.549Z,99322.52
2019-03-05T00:28:12.302Z,99309.92
2019-03-05T00:30:52.845Z,99322.69
2019-03-05T00:33:33.065Z,99327.44
2019-03-05T00:36:25.000Z,99325.95
2019-03-05T00:39:13.188Z,99329.55
2019-03-05T00:42:11.276Z,99334.14
2019-03-05T00:45:02.115Z,99326.11
2019-03-05T00:47:42.744Z,99336.78
2019-03-05T00:50:33.294Z,99330.37
2019-03-05T00:53:07.754Z,99345.94
2019-03-05T00:55:45.023Z,99341.34
2019-03-05T00:58:25.656Z,99348.06
2019-03-05T01:01:15.812Z,99356.24
2019-03-05T01:03:52.755Z,99348.38
2019-03-05T01:06:24.407Z,99343.80
2019-03-05T01:08:54.928Z,99347.09
2019-03-05T01:11:24.012Z,99350.52
2019-03-05T01:13:52.466Z,99351.98
2019-03-05T01:16:22.404Z,99360.83
2019-03-05T01:18:51.213Z,99344.13
2019-03-05T01:21:19.789Z,99363.13
2019-03-05T01:23:48.106Z,99364.77
2019-03-05T01:26:16.655Z,99359.69
2019-03-05T01:28:45.230Z,99365.75
2019-03-05T01:31:15.170Z,99373.78
2019-03-05T01:34:00.242Z,99367.72
2019-03-05T01:36:33.177Z,99374.73
2019-03-05T01:39:03.128Z,99365.08
2019-03-05T01:41:31.414Z,99385.57
2019-03-05T01:43:59.731Z,99372.95
2019-03-05T01:46:28.008Z,99370.49
2019-03-05T01:48:56.316Z,99361.32
2019-03-05T01:51:24.626Z,99369.35
2019-03-05T01:53:52.912Z,99378.67
2019-03-05T01:56:21.297Z,99372.78
2019-03-05T01:58:49.579Z,99378.36
2019-03-05T02:01:17.875Z,99385.55
2019-03-05T02:03:46.163Z,99379.00
2019-03-05T02:06:14.582Z,99381.97
2019-03-05T02:08:42.935Z,99374.43
2019-03-05T02:11:11.903Z,99371.31
2019-03-05T02:13:40.195Z,99370.81
2019-03-05T02:16:08.508Z,99385.23
2019-03-05T02:18:37.093Z,99366.72
2019-03-05T02:21:05.380Z,99387.04
2019-03-05T02:23:48.935Z,99386.38
2019-03-05T02:26:32.554Z,99384.58
2019-03-05T02:29:10.057Z,99382.75
2019-03-05T02:31:58.681Z,99389.80
2019-03-05T02:34:33.128Z,99396.52
2019-03-05T02:37:19.791Z,99397.97
2019-03-05T02:40:07.717Z,99391.11
2019-03-05T02:42:47.932Z,99402.39
2019-03-05T02:45:25.228Z,99405.02
2019-03-05T02:48:13.200Z,99396.17
2019-03-05T02:51:13.574Z,99395.03
2019-03-05T02:54:03.342Z,99400.59
2019-03-05T02:57:03.559Z,99409.58
2019-03-05T02:59:32.142Z,99410.84
2019-03-05T03:02:05.062Z,99416.08
2019-03-05T03:04:35.007Z,99445.50
2019-03-05T03:07:03.295Z,99443.17
2019-03-05T03:09:34.775Z,99429.37
2019-03-05T03:12:03.084Z,99431.25
2019-03-05T03:14:31.389Z,99434.47
2019-03-05T03:16:59.701Z,99431.14
2019-03-05T03:19:27.981Z,99429.91
2019-03-05T03:21:56.294Z,99431.52
2019-03-05T03:24:24.653Z,99432.13
2019-03-05T03:26:53.060Z,99434.02
2019-03-05T03:29:21.333Z,99437.28
2019-03-05T03:31:49.629Z,99438.59
2019-03-05T03:34:17.926Z,99430.34
2019-03-05T03:36:46.211Z,99435.79
2019-03-05T03:39:14.533Z,99438.73
2019-03-05T03:41:42.889Z,99442.70
2019-03-05T03:44:11.192Z,99430.89
2019-03-05T03:46:39.499Z,99439.58
2019-03-05T03:49:07.805Z,99436.12
2019-03-05T03:51:36.090Z,99438.41
2019-03-05T03:54:04.422Z,99433.26
2019-03-05T03:56:32.719Z,99441.28
2019-03-05T03:59:01.019Z,99440.23
2019-03-05T04:01:29.300Z,99445.83
2019-03-05T04:03:58.070Z,99442.94
2019-03-05T04:06:26.349Z,99441.33
2019-03-05T04:08:54.714Z,99445.73
2019-03-05T04:11:23.321Z,99450.59
2019-03-05T04:13:51.630Z,99448.80
2019-03-05T04:16:19.927Z,99449.66
2019-03-05T04:18:48.211Z,99444.59
2019-03-05T04:21:19.909Z,99447.98
2019-03-05T04:23:46.520Z,99447.19
2019-03-05T04:26:14.917Z,99454.44
2019-03-05T04:28:43.195Z,99457.36
2019-03-05T04:31:11.492Z,99455.53
2019-03-05T04:33:39.790Z,99461.47
2019-03-05T04:36:08.080Z,99456.52
2019-03-05T04:38:36.360Z,99458.53
2019-03-05T04:41:05.080Z,99455.82
2019-03-05T04:43:33.372Z,99453.38
2019-03-05T04:46:06.208Z,99454.14
2019-03-05T04:48:34.492Z,99460.05
2019-03-05T04:51:04.410Z,99455.99
2019-03-05T04:53:32.729Z,99454.56
2019-03-05T04:56:01.012Z,99450.32
2019-03-05T04:58:29.306Z,99452.75
2019-03-05T05:00:57.595Z,99457.77
2019-03-05T05:03:25.916Z,99467.11
2019-03-05T05:05:54.207Z,99461.81
2019-03-05T05:08:22.498Z,99465.27
2019-03-05T05:10:50.773Z,99456.42
2019-03-05T05:13:19.068Z,99470.45
2019-03-05T05:15:47.440Z,99467.37
2019-03-05T05:20:33.306Z,99467.84
2019-03-05T05:23:01.596Z,99467.19
2019-03-05T05:25:29.902Z,99463.91
2019-03-05T05:27:58.233Z,99463.48
2019-03-05T05:30:32.947Z,99470.66
2019-03-05T05:33:01.317Z,99473.67
2019-03-05T05:35:30.134Z,99469.46
2019-03-05T05:37:58.497Z,99467.16
2019-03-05T05:40:40.809Z,99459.91
2019-03-05T05:43:12.037Z,99463.38
2019-03-05T05:45:45.599Z,99476.47
2019-03-05T05:48:13.891Z,99469.44
2019-03-05T05:50:42.642Z,99466.66
2019-03-05T05:53:10.910Z,99474.57
2019-03-05T05:55:39.576Z,99472.95
2019-03-05T05:58:07.874Z,99483.42
2019-03-05T06:00:38.085Z,99479.48
2019-03-05T06:03:06.371Z,99478.48
2019-03-05T06:05:34.931Z,99474.41
2019-03-05T06:08:03.217Z,99466.70
2019-03-05T06:10:31.521Z,99468.51
2019-03-05T06:12:59.824Z,99467.97
2019-03-05T06:15:28.274Z,99466.86
2019-03-05T06:17:56.878Z,99469.66
2019-03-05T06:20:25.164Z,99466.55
2019-03-05T06:22:53.486Z,99467.05
2019-03-05T06:25:21.838Z,99477.19
2019-03-05T06:27:50.142Z,99469.98
2019-03-05T06:30:38.173Z,99473.47
2019-03-05T06:33:06.471Z,99475.77
2019-03-05T06:35:34.755Z,99464.83
2019-03-05T06:38:03.169Z,99475.28
2019-03-05T06:40:32.604Z,99479.23
2019-03-05T06:43:00.911Z,99483.22
2019-03-05T06:45:29.285Z,99477.33
2019-03-05T06:47:57.580Z,99481.91
2019-03-05T06:50:27.196Z,99485.03
2019-03-05T06:52:55.732Z,99486.03
2019-03-05T06:55:24.422Z,99492.90
2019-03-05T06:57:53.006Z,99493.41
2019-03-05T07:00:36.173Z,99485.25
2019-03-05T07:03:06.096Z,99497.89
2019-03-05T07:06:10.980Z,99510.48
2019-03-05T07:08:42.511Z,99502.62
2019-03-05T07:11:23.104Z,99511.80
2019-03-05T07:13:54.089Z,99513.75
2019-03-05T07:16:25.576Z,99527.19
2019-03-05T07:18:56.123Z,99516.87
2019-03-05T07:21:53.473Z,99520.98
2019-03-05T07:24:24.956Z,99522.57
2019-03-05T07:26:53.232Z,99526.20
2019-03-05T07:29:21.538Z,99535.67
2019-03-05T07:31:50.157Z,99528.42
2019-03-05T07:34:23.173Z,99533.35
2019-03-05T07:36:51.457Z,99534.53
2019-03-05T07:39:22.634Z,99540.28
2019-03-05T07:41:50.924Z,99546.66
2019-03-05T07:44:19.320Z,99547.33
2019-03-05T07:46:47.955Z,99552.52
2019-03-05T07:49:16.256Z,99554.31
2019-03-05T07:51:44.893Z,99563.79
2019-03-05T07:54:13.219Z,99567.58
2019-03-05T07:56:41.496Z,99562.53
2019-03-05T07:59:09.818Z,99566.58
2019-03-05T08:01:38.120Z,99573.43
2019-03-05T08:04:06.480Z,99579.83
2019-03-05T08:06:35.049Z,99585.72
2019-03-05T08:09:32.448Z,99584.59
2019-03-05T08:12:03.910Z,99592.23
2019-03-05T08:14:47.138Z,99589.84
2019-03-05T08:17:15.786Z,99591.66
2019-03-05T08:19:44.094Z,99596.28
2019-03-05T08:22:12.380Z,99600.72
2019-03-05T08:24:40.671Z,99608.05
2019-03-05T08:27:09.276Z,99619.65
2019-03-05T08:29:37.977Z,99614.75
2019-03-05T08:32:06.283Z,99614.40
2019-03-05T08:34:34.573Z,99628.95
2019-03-05T08:37:02.879Z,99627.63
2019-03-05T08:39:31.152Z,99640.55
2019-03-05T08:41:59.473Z,99627.04
2019-03-05T08:44:28.442Z,99639.19
2019-03-05T08:46:56.780Z,99637.88
2019-03-05T08:49:25.415Z,99638.81
2019-03-05T08:51:53.693Z,99647.62
2019-03-05T08:54:21.982Z,99646.83
2019-03-05T08:56:50.645Z,99654.89
2019-03-05T08:59:19.224Z,99661.85
2019-03-05T09:01:47.504Z,99654.61
2019-03-05T09:04:16.085Z,99664.71
2019-03-05T09:06:44.645Z,99667.66
2019-03-05T09:09:15.051Z,99661.92
2019-03-05T09:11:43.339Z,99667.33
2019-03-05T09:14:11.710Z,99665.80
2019-03-05T09:16:39.986Z,99668.16
2019-03-05T09:19:08.283Z,99679.97
2019-03-05T09:21:36.569Z,99680.33
2019-03-05T09:24:05.170Z,99688.27
2019-03-05T09:26:33.456Z,99687.97
2019-03-05T09:29:01.751Z,99686.93
2019-03-05T09:31:30.025Z,99685.22
2019-03-05T09:33:58.307Z,99688.70
2019-03-05T09:36:26.961Z,99698.92
2019-03-05T09:38:55.249Z,99689.20
2019-03-05T09:41:23.554Z,99685.34
2019-03-05T09:43:52.310Z,99692.36
2019-03-05T09:46:20.640Z,99692.59
2019-03-05T09:48:48.933Z,99687.37
2019-03-05T09:51:17.537Z,99697.33
2019-03-05T09:53:46.111Z,99698.09
2019-03-05T09:56:14.548Z,99695.87
2019-03-05T09:58:42.836Z,99700.07
2019-03-05T10:01:11.209Z,99707.59
2019-03-05T10:03:39.562Z,99713.84
2019-03-05T10:06:07.906Z,99713.39
2019-03-05T10:08:36.249Z,99713.84
2019-03-05T10:11:04.678Z,99716.84
2019-03-05T10:13:33.063Z,99719.28
2019-03-05T10:16:01.349Z,99722.83
2019-03-05T10:18:29.654Z,99730.17
2019-03-05T10:20:57.934Z,99727.86
2019-03-05T10:23:26.253Z,99731.37
2019-03-05T10:25:54.542Z,99728.64
2019-03-05T10:28:22.937Z,99729.89
2019-03-05T10:30:51.336Z,99733.06
2019-03-05T10:33:19.968Z,99726.22
2019-03-05T10:35:48.346Z,99731.16
2019-03-05T10:38:16.811Z,99733.92
2019-03-05T10:40:57.418Z,99738.84
2019-03-05T10:43:25.848Z,99740.48
2019-03-05T10:45:54.574Z,99736.97
2019-03-05T10:48:26.020Z,99739.89
2019-03-05T10:50:54.633Z,99742.64
2019-03-05T10:53:23.175Z,99737.72
2019-03-05T10:55:52.093Z,99747.09
2019-03-05T10:58:20.385Z,99750.66
2019-03-05T11:00:51.169Z,99762.04
2019-03-05T11:03:21.503Z,99761.22
2019-03-05T11:05:49.855Z,99766.79
2019-03-05T11:08:23.914Z,99760.89
2019-03-05T11:10:53.099Z,99759.89
2019-03-05T11:13:21.465Z,99767.80
2019-03-05T11:15:55.474Z,99763.36
2019-03-05T11:18:29.261Z,99761.72
2019-03-05T11:20:54.126Z,99761.89
2019-03-05T11:23:22.766Z,99761.23
2019-03-05T11:25:51.051Z,99760.57
2019-03-05T11:28:19.633Z,99768.94
2019-03-05T11:30:47.989Z,99776.16
2019-03-05T11:33:16.237Z,99771.40
2019-03-05T11:35:44.531Z,99779.76
2019-03-05T11:38:13.294Z,99776.80
2019-03-05T11:40:41.788Z,99777.95
2019-03-05T11:43:15.238Z,99791.89
2019-03-05T11:45:44.174Z,99788.60
2019-03-05T11:48:13.325Z,99790.39
2019-03-05T11:50:41.630Z,99790.55
2019-03-05T11:53:09.910Z,99789.41
2019-03-05T11:55:38.228Z,99784.50
2019-03-05T11:58:06.568Z,99804.72
2019-03-05T12:00:39.331Z,99803.72
2019-03-05T12:03:07.629Z,99805.36
2019-03-05T12:05:36.277Z,99806.36
2019-03-05T12:08:04.757Z,99813.54
2019-03-05T12:10:33.053Z,99806.09
2019-03-05T12:13:01.350Z,99805.39
2019-03-05T12:15:31.604Z,99808.80
2019-03-05T12:17:59.999Z,99803.54
2019-03-05T12:20:28.384Z,99811.98
2019-03-05T12:22:56.692Z,99812.95
2019-03-05T12:25:26.372Z,99820.30
2019-03-05T12:27:54.871Z,99813.50
2019-03-05T12:30:26.334Z,99812.06
2019-03-05T12:32:54.708Z,99819.13
2019-03-05T12:35:23.366Z,99812.35
2019-03-05T12:37:51.675Z,99822.95
2019-03-05T12:40:23.510Z,99825.58
2019-03-05T12:42:51.825Z,99824.39
2019-03-05T12:45:21.397Z,99827.69
2019-03-05T12:47:49.664Z,99822.52
2019-03-05T12:50:19.982Z,99825.05
2019-03-05T12:52:48.886Z,99829.06
2019-03-05T12:55:17.947Z,99824.48
2019-03-05T12:57:46.296Z,99817.05
2019-03-05T13:00:21.076Z,99827.02
2019-03-05T13:02:51.051Z,99827.28
2019-03-05T13:05:19.528Z,99820.88
2019-03-05T13:07:48.282Z,99819.00
2019-03-05T13:10:34.966Z,99827.56
2019-03-05T13:13:00.976Z,99821.28
2019-03-05T13:15:42.305Z,99823.08
2019-03-05T13:18:10.860Z,99824.77
2019-03-05T13:20:39.167Z,99835.75
2019-03-05T13:23:09.555Z,99832.67
2019-03-05T13:25:38.399Z,99831.52
2019-03-05T13:28:06.819Z,99836.50
2019-03-05T13:30:35.270Z,99836.62
2019-03-05T13:33:03.896Z,99829.06
2019-03-05T13:35:32.479Z,99845.03
2019-03-05T13:38:03.247Z,99851.02
2019-03-05T13:40:34.051Z,99853.28
2019-03-05T13:43:02.995Z,99862.23
2019-03-05T13:45:31.295Z,99862.73
2019-03-05T13:48:14.762Z,99865.31
2019-03-05T13:50:53.400Z,99858.60
2019-03-05T13:53:41.769Z,99856.98
2019-03-05T13:56:29.814Z,99851.58
2019-03-05T13:59:10.417Z,99850.42
2019-03-05T14:01:38.715Z,99859.93
2019-03-05T14:04:13.378Z,99863.52
2019-03-05T14:06:50.755Z,99853.31
2019-03-05T14:09:19.113Z,99853.81
2019-03-05T14:11:49.135Z,99868.02
2019-03-05T14:14:19.972Z,99872.47
2019-03-05T14:16:50.136Z,99879.88
2019-03-05T14:19:18.412Z,99877.42
2019-03-05T14:21:46.726Z,99877.94
2019-03-05T14:24:15.098Z,99882.66
2019-03-05T14:26:43.428Z,99889.74
2019-03-05T14:29:11.723Z,99892.54
2019-03-05T14:31:40.023Z,99899.41
2019-03-05T14:34:08.316Z,99892.16
2019-03-05T14:36:36.631Z,99894.59
2019-03-05T14:39:09.724Z,99891.77
2019-03-05T14:41:38.207Z,99891.92
2019-03-05T14:44:06.876Z,99894.40
2019-03-05T14:46:35.437Z,99899.52
2019-03-05T14:49:03.734Z,99902.34
2019-03-05T14:51:32.129Z,99895.91
2019-03-05T14:54:00.377Z,99894.26
2019-03-05T14:56:28.735Z,99895.23
2019-03-05T14:58:57.028Z,99895.85
2019-03-05T15:01:25.326Z,99893.33
2019-03-05T15:03:53.637Z,99899.98
2019-03-05T15:06:21.938Z,99898.42
2019-03-05T15:08:50.366Z,99897.92
2019-03-05T15:11:18.659Z,99899.73
2019-03-05T15:13:47.068Z,99904.03
2019-03-05T15:16:15.368Z,99907.39
2019-03-05T15:18:43.683Z,99916.08
2019-03-05T15:21:11.977Z,99913.12
2019-03-05T15:23:40.251Z,99920.73
2019-03-05T15:26:08.596Z,99921.22
2019-03-05T15:28:36.897Z,99930.30
2019-03-05T15:31:05.358Z,99932.46
2019-03-05T15:33:33.651Z,99935.41
2019-03-05T15:36:01.995Z,99934.55
2019-03-05T15:38:30.561Z,99945.08
2019-03-05T15:40:58.951Z,99946.88
2019-03-05T15:43:27.290Z,99943.59
2019-03-05T15:45:55.917Z,99947.72
2019-03-05T15:48:24.487Z,99945.95
2019-03-05T15:50:53.041Z,99946.09
2019-03-05T15:53:21.366Z,99946.24
2019-03-05T15:55:49.944Z,99950.16
2019-03-05T15:58:18.273Z,99945.89
2019-03-05T16:00:46.553Z,99947.70
2019-03-05T16:03:14.912Z,99947.58
2019-03-05T16:05:43.238Z,99959.80
2019-03-05T16:08:11.545Z,99959.00
2019-03-05T16:10:39.817Z,99959.02
2019-03-05T16:13:08.131Z,99952.59
2019-03-05T16:15:36.414Z,99954.07
2019-03-05T16:18:05.524Z,99955.39
2019-03-05T16:20:34.818Z,99957.84
2019-03-05T16:23:03.110Z,99967.70
2019-03-05T16:25:31.442Z,99963.10
2019-03-05T16:28:02.227Z,99967.39
2019-03-05T16:30:45.016Z,99968.86
2019-03-05T16:33:32.389Z,99971.00
2019-03-05T16:36:16.378Z,99972.16
2019-03-05T16:38:46.394Z,99970.84
2019-03-05T16:41:32.391Z,99980.70
2019-03-05T16:44:05.037Z,99979.20
2019-03-05T16:46:38.186Z,99982.19
2019-03-05T16:49:24.467Z,99981.02
2019-03-05T16:52:00.471Z,99990.22
2019-03-05T16:54:33.135Z,99996.79
2019-03-05T16:57:03.086Z,99998.07
2019-03-05T16:59:39.291Z,100001.52
2019-03-05T17:02:12.455Z,99998.39
2019-03-05T17:04:54.196Z,100004.95
2019-03-05T17:07:29.904Z,100012.64
2019-03-05T17:10:06.304Z,100010.47
2019-03-05T17:12:34.607Z,100020.33
2019-03-05T17:15:02.963Z,100036.09
2019-03-05T17:17:31.839Z,100033.10
2019-03-05T17:20:00.306Z,100041.61
2019-03-05T17:22:28.717Z,100045.53
2019-03-05T17:24:57.014Z,100042.56
2019-03-05T17:27:25.404Z,100043.02
2019-03-05T17:29:53.924Z,100039.74
2019-03-05T17:32:22.616Z,100045.80
2019-03-05T17:34:50.947Z,100052.48
2019-03-05T17:37:19.583Z,100054.58
2019-03-05T17:39:47.895Z,100064.70
2019-03-05T17:42:16.468Z,100061.73
2019-03-05T17:44:45.041Z,100067.42
2019-03-05T17:47:13.376Z,100065.78
2019-03-05T17:49:41.994Z,100069.40
2019-03-05T17:52:10.319Z,100072.66
2019-03-05T17:54:38.886Z,100074.95
2019-03-05T17:57:08.995Z,100077.22
2019-03-05T17:59:37.358Z,100074.45
2019-03-05T18:02:05.738Z,100078.39
2019-03-05T18:04:34.031Z,100083.78
2019-03-05T18:07:02.511Z,100081.16
2019-03-05T18:09:30.809Z,100089.52
2019-03-05T18:11:59.108Z,100092.64
2019-03-05T18:14:27.386Z,100094.12
2019-03-05T18:16:55.978Z,100091.44
2019-03-05T18:19:24.458Z,100095.38
2019-03-05T18:21:52.771Z,100102.09
2019-03-05T18:24:21.330Z,100097.97
2019-03-05T18:26:49.644Z,100100.40
2019-03-05T18:29:17.934Z,100100.83
2019-03-05T18:31:46.227Z,100101.63
2019-03-05T18:34:14.513Z,100108.97
2019-03-05T18:36:43.156Z,100109.92
2019-03-05T18:39:13.057Z,100118.52
2019-03-05T18:41:41.740Z,100116.98
2019-03-05T18:44:10.046Z,100115.11
2019-03-05T18:46:38.338Z,100115.37
2019-03-05T18:49:06.672Z,100117.88
2019-03-05T18:51:34.948Z,100121.94
2019-03-05T18:54:03.431Z,100124.52
2019-03-05T18:56:32.526Z,100124.45
2019-03-05T18:59:00.839Z,100124.28
2019-03-05T19:01:29.179Z,100124.20
2019-03-05T19:03:57.477Z,100126.66
2019-03-05T19:06:25.783Z,100130.06
2019-03-05T19:08:54.073Z,100141.16
2019-03-05T19:11:22.371Z,100136.20
2019-03-05T19:13:50.654Z,100146.48
2019-03-05T19:16:18.969Z,100141.89
2019-03-05T19:18:47.330Z,100138.78
2019-03-05T19:21:15.625Z,100139.11
2019-03-05T19:23:44.376Z,100146.69
2019-03-05T19:26:12.752Z,100139.84
2019-03-05T19:28:41.032Z,100149.11
2019-03-05T19:31:09.418Z,100158.06
2019-03-05T19:33:37.870Z,100150.05
2019-03-05T19:36:06.586Z,100148.94
2019-03-05T19:38:34.887Z,100155.33
2019-03-05T19:41:03.184Z,100157.81
2019-03-05T19:43:31.504Z,100168.97
2019-03-05T19:46:00.088Z,100162.61
2019-03-05T19:48:28.568Z,100164.25
2019-03-05T19:50:57.158Z,100165.56
2019-03-05T19:53:25.488Z,100176.88
2019-03-05T19:55:53.770Z,100170.97
2019-03-05T19:58:22.086Z,100170.81
2019-03-05T20:00:53.634Z,100175.23
2019-03-05T20:03:22.006Z,100180.47
2019-03-05T20:05:50.559Z,100177.19
2019-03-05T20:08:18.872Z,100177.12
2019-03-05T20:10:47.377Z,100176.30
2019-03-05T20:13:15.951Z,100173.84
2019-03-05T20:15:44.536Z,100183.63
2019-03-05T20:18:12.845Z,100182.11
2019-03-05T20:20:41.133Z,100186.05
2019-03-05T20:23:09.436Z,100184.73
2019-03-05T20:25:38.712Z,100191.29
2019-03-05T20:28:07.472Z,100188.29
2019-03-05T20:30:35.773Z,100191.69
2019-03-05T20:33:18.243Z,100188.00
2019-03-05T20:35:47.121Z,100187.80
2019-03-05T20:38:15.717Z,100184.03
2019-03-05T20:40:44.285Z,100191.20
2019-03-05T20:43:12.865Z,100195.25
2019-03-05T20:45:50.773Z,100186.73
2019-03-05T20:48:19.071Z,100194.39
2019-03-05T20:50:47.737Z,100195.03
2019-03-05T20:53:16.030Z,100194.83
2019-03-05T20:55:44.348Z,100197.78
2019-03-05T20:58:12.971Z,100195.65
2019-03-05T21:00:41.638Z,100193.65
2019-03-05T21:03:12.095Z,100192.62
2019-03-05T21:05:44.459Z,100192.08
2019-03-05T21:08:13.088Z,100189.70
2019-03-05T21:10:41.751Z,100195.32
2019-03-05T21:13:10.324Z,100190.48
2019-03-05T21:15:38.776Z,100189.89
2019-03-05T21:18:12.408Z,100199.28
2019-03-05T21:20:40.684Z,100199.84
2019-03-05T21:23:08.996Z,100200.27
2019-03-05T21:25:37.296Z,100197.02
2019-03-05T21:28:05.599Z,100199.58
2019-03-05T21:30:33.985Z,100198.54
2019-03-05T21:33:02.309Z,100197.66
2019-03-05T21:35:30.605Z,100192.85
2019-03-05T21:37:59.065Z,100192.16
2019-03-05T21:40:28.696Z,100199.30
2019-03-05T21:42:57.267Z,100204.69
2019-03-05T21:45:43.483Z,100198.42
2019-03-05T21:48:12.306Z,100193.67
2019-03-05T21:50:40.624Z,100201.86
2019-03-05T21:53:08.907Z,100206.27
2019-03-05T21:55:37.219Z,100199.13
2019-03-05T21:58:05.805Z,100202.28
2019-03-05T22:00:36.100Z,100206.06
2019-03-05T22:03:05.529Z,100212.11
2019-03-05T22:05:33.850Z,100206.55
2019-03-05T22:08:02.137Z,100205.72
2019-03-05T22:10:30.772Z,100210.14
2019-03-05T22:12:59.185Z,100211.72
2019-03-05T22:15:30.087Z,100210.80
2019-03-05T22:17:58.391Z,100214.17
2019-03-05T22:20:26.698Z,100216.12
2019-03-05T22:22:55.064Z,100218.03
2019-03-05T22:25:24.206Z,100218.67
2019-03-05T22:27:52.566Z,100223.20
2019-03-05T22:30:23.125Z,100220.70
2019-03-05T22:32:51.828Z,100226.79
2019-03-05T22:35:20.316Z,100223.95
2019-03-05T22:37:48.855Z,100222.31
2019-03-05T22:40:18.785Z,100218.84
2019-03-05T22:42:47.369Z,100217.20
2019-03-05T22:45:17.604Z,100216.86
2019-03-05T22:47:46.122Z,100209.50
2019-03-05T22:50:15.844Z,100206.73
2019-03-05T22:52:44.327Z,100207.01
2019-03-05T22:55:14.478Z,100208.58
2019-03-05T22:57:42.931Z,100208.03
2019-03-05T23:00:14.770Z,100207.20
2019-03-05T23:02:43.083Z,100211.28
2019-03-05T23:05:12.938Z,100217.59
2019-03-05T23:07:41.218Z,100217.11
2019-03-05T23:10:13.677Z,100215.81
2019-03-05T23:12:42.148Z,100208.93
2019-03-05T23:15:12.715Z,100215.95
2019-03-05T23:17:41.020Z,100203.00
2019-03-05T23:20:14.292Z,100202.17
2019-03-05T23:22:42.761Z,100202.17
2019-03-05T23:25:15.196Z,100204.45
2019-03-05T23:27:43.923Z,100195.20
2019-03-05T23:30:20.211Z,100194.80
2019-03-05T23:32:54.778Z,100192.78
2019-03-05T23:35:23.074Z,100186.40
2019-03-05T23:37:51.371Z,100187.70
2019-03-05T23:40:20.017Z,100186.06
2019-03-05T23:42:48.494Z,100183.30
2019-03-05T23:45:20.079Z,100182.33
2019-03-05T23:47:48.444Z,100179.59
2019-03-05T23:50:17.273Z,100177.20
2019-03-05T23:52:45.843Z,100181.80
2019-03-05T23:55:14.791Z,100181.41
2019-03-05T23:57:43.384Z,100173.26
